WetterOnline ( https://www.wetteronline.de )

Wetter aktuell Nordhausen

Aktuelles Wetter: Harzgerode (405m)

6-stündlich | Neueste Meldungen
Ortszeit Temperatur Wetter
Sa, 30.05. 14:00 15.3° C bewölkt
Sa, 30.05. 8:00 10.3° C wolkig
Sa, 30.05. 2:00 7.3° C leicht bewölkt
Fr, 29.05. 20:00 15.8° C leicht bewölkt
Fr, 29.05. 14:00 16.7° C leicht bewölkt
Fr, 29.05. 8:00 9.2° C wolkenlos
Fr, 29.05. 2:00 8.4° C wolkig
Do, 28.05. 20:00 14.9° C wolkenlos
Ortszeit Temperatur Wetter
Sa, 30.05. 14:30 15.3° C wolkig
Sa, 30.05. 14:20 15.3° C wolkig
Sa, 30.05. 14:10 14.6° C bewölkt
Sa, 30.05. 14:00 15.3° C bewölkt
Sa, 30.05. 13:50 15.3° C bewölkt
Sa, 30.05. 13:40 14.5° C bewölkt
Sa, 30.05. 13:30 15.1° C bewölkt
Sa, 30.05. 13:00 14.8° C bewölkt
Ortszeit Relative Feuchte Sichtweite
Sa, 30.05. 14:00 45% 40 km
Sa, 30.05. 8:00 63% 55 km
Sa, 30.05. 2:00 81% 55 km
Fr, 29.05. 20:00 41% 60 km
Fr, 29.05. 14:00 43% 50 km
Fr, 29.05. 8:00 74% >70 km
Fr, 29.05. 2:00 77% 40 km
Do, 28.05. 20:00 45% 55 km
Ortszeit Relative Feuchte Sichtweite
Sa, 30.05. 14:30 44% 50 km
Sa, 30.05. 14:20 44% -
Sa, 30.05. 14:10 46% -
Sa, 30.05. 14:00 45% 40 km
Sa, 30.05. 13:50 45% -
Sa, 30.05. 13:40 45% -
Sa, 30.05. 13:30 45% 65 km
Sa, 30.05. 13:00 44% >70 km
Ortszeit Niederschlagsmenge Niederschlagsart
Sa, 30.05. 14:00 0.0 l/m2 in 6 Std. -
Sa, 30.05. 8:00 0.0 l/m2 in 12 Std. -
Sa, 30.05. 2:00 0.0 l/m2 in 6 Std. -
Fr, 29.05. 20:00 0.0 l/m2 in 12 Std. -
Fr, 29.05. 14:00 0.0 l/m2 in 6 Std. -
Fr, 29.05. 8:00 0.0 l/m2 in 12 Std. -
Fr, 29.05. 2:00 0.0 l/m2 in 6 Std. -
Do, 28.05. 20:00 0.0 l/m2 in 12 Std. -
Ortszeit Niederschlagsmenge Niederschlagsart
Sa, 30.05. 14:30 0.0 l/m2 in 1 Std. -
Sa, 30.05. 14:20 keine Meldung -
Sa, 30.05. 14:10 keine Meldung -
Sa, 30.05. 14:00 0.0 l/m2 in 1 Std. -
Sa, 30.05. 13:50 keine Meldung -
Sa, 30.05. 13:40 keine Meldung -
Sa, 30.05. 13:30 0.0 l/m2 in 1 Std. -
Sa, 30.05. 13:00 0.0 l/m2 in 1 Std. -
Ortszeit Stärke Spitze Richtung
km/h Bft. km/h Grad Sektor
Sa, 30.05. 14:00 18 3 43 50° NO
Sa, 30.05. 8:00 7 2 19 50° NO
Sa, 30.05. 2:00 6 1 30 360° N
Fr, 29.05. 20:00 7 2 40 80° O
Fr, 29.05. 14:00 9 2 31 110° O
Fr, 29.05. 8:00 7 2 14 40° NO
Fr, 29.05. 2:00 7 2 28 360° N
Do, 28.05. 20:00 15 3 41 360° N
Ortszeit Stärke Spitze Richtung
km/h Bft. km/h Grad Sektor
Sa, 30.05. 14:30 18 3 40 40° NO
Sa, 30.05. 14:20 18 3 - 40° NO
Sa, 30.05. 14:10 19 3 - 40° NO
Sa, 30.05. 14:00 18 3 43 50° NO
Sa, 30.05. 13:50 18 3 - 50° NO
Sa, 30.05. 13:40 18 3 - 40° NO
Sa, 30.05. 13:30 17 3 33 50° NO
Sa, 30.05. 13:00 22 4 43 40° NO
Ortszeit Untergrenze Bedeckung Gattung
total tief tief mittel hoch
Sa, 30.05. 14:00 1800 m 7/8 7/8 - - -
Sa, 30.05. 8:00 1800 m 8/8 3/8 - - -
Sa, 30.05. 2:00 1800 m 2/8 2/8 - - -
Fr, 29.05. 20:00 2100 m 4/8 4/8 - - -
Fr, 29.05. 14:00 1500 m 3/8 3/8 - - -
Fr, 29.05. 8:00 - 0/8 0/8 - - -
Fr, 29.05. 2:00 8700 m 8/8 0/8 - - -
Do, 28.05. 20:00 - 0/8 0/8 - - -
Ortszeit Bedeckungsgrad in Achtel und Wolkenuntergrenze
Sa, 30.05. 14:30 4(1800m) 6(2100m)
Sa, 30.05. 14:20 4(1800m) 6(2100m)
Sa, 30.05. 14:10 5(1500m) 7(2100m)
Sa, 30.05. 14:00 6(1800m) 7(2100m)
Sa, 30.05. 13:50 6(1800m) 7(2100m)
Sa, 30.05. 13:40 7(1800m)
Sa, 30.05. 13:30 7(1800m)
Sa, 30.05. 13:00 7(1500m) 7(1800m)
Ortszeit Luftdruck NN (hPa) Tendenz (hPa in 3 Std.)
Sa, 30.05. 14:00 1024 - 0,8
Sa, 30.05. 8:00 1026 + 0,1
Sa, 30.05. 2:00 1027 + 0,1
Fr, 29.05. 20:00 1026 - 1,0
Fr, 29.05. 14:00 1028 - 1,0
Fr, 29.05. 8:00 1031 + 0,2
Fr, 29.05. 2:00 1031 + 0,2
Do, 28.05. 20:00 1029 - 0,5
Ortszeit Luftdruck NN (hPa) Tendenz (hPa in 3 Std.)
Sa, 30.05. 14:30 1024 - 0,9
Sa, 30.05. 14:20 1024 keine Meldung
Sa, 30.05. 14:10 1024 keine Meldung
Sa, 30.05. 14:00 1024 - 0,8
Sa, 30.05. 13:50 1024 keine Meldung
Sa, 30.05. 13:40 1024 keine Meldung
Sa, 30.05. 13:30 1024 - 0,7
Sa, 30.05. 13:00 1024 - 0,9
Ortszeit Schneehöhe (cm)
Sa, 30.05. 14:00 -
Sa, 30.05. 8:00 -
Sa, 30.05. 2:00 -
Fr, 29.05. 20:00 -
Fr, 29.05. 14:00 -
Fr, 29.05. 8:00 -
Fr, 29.05. 2:00 -
Do, 28.05. 20:00 -
Ortszeit Schneehöhe (cm)
Sa, 30.05. 14:30 -
Sa, 30.05. 14:20 -
Sa, 30.05. 14:10 -
Sa, 30.05. 14:00 -
Sa, 30.05. 13:50 -
Sa, 30.05. 13:40 -
Sa, 30.05. 13:30 -
Sa, 30.05. 13:00 -
Link zu dieser Seite / Seite empfehlen

Das Wetter in ...